Time;durP1;ratioP1;P1;durP2;ratioP2;P2;SDS_P1;SDS_P2;PMS_P1;PMS_P2;Temp;Humidity;BMP_temperature;BMP_pressure;BME280_temperature;BME280_humidity;BME280_pressure;Samples;Min_cycle;Max_cycle;Signal;HPM_P1;HPM_P2
2022/11/29 00:00:57;;;;;;;72.80;27.75;;;;;;;8.20;100.00;101511.72;6254109;22;20044;-75
2022/11/29 00:03:24;;;;;;;74.95;28.10;;;;;;;8.21;100.00;101515.88;6254414;22;20016;-75
2022/11/29 00:05:50;;;;;;;91.45;30.63;;;;;;;8.19;100.00;101517.44;6281113;22;20023;-75
2022/11/29 00:08:18;;;;;;;84.80;29.02;;;;;;;8.18;100.00;101521.25;6280957;22;20073;-75
2022/11/29 00:10:45;;;;;;;74.40;30.35;;;;;;;8.18;100.00;101524.66;6281157;22;20036;-76
2022/11/29 00:13:11;;;;;;;79.65;28.58;;;;;;;8.17;100.00;101525.81;6281428;22;20517;-75
2022/11/29 00:15:39;;;;;;;74.38;28.27;;;;;;;8.17;100.00;101531.09;6281130;22;20067;-75
2022/11/29 00:18:06;;;;;;;84.55;29.95;;;;;;;8.17;100.00;101528.44;6281650;22;20070;-75
2022/11/29 00:20:34;;;;;;;92.15;28.98;;;;;;;8.14;100.00;101531.91;6281095;22;20012;-75
2022/11/29 00:23:01;;;;;;;96.35;30.25;;;;;;;8.14;100.00;101529.25;6280793;22;20437;-75
2022/11/29 00:25:27;;;;;;;98.55;29.67;;;;;;;8.14;100.00;101526.59;6281529;22;20051;-75
2022/11/29 00:27:53;;;;;;;77.97;29.33;;;;;;;8.14;100.00;101529.25;6281473;22;20080;-75
2022/11/29 00:30:20;;;;;;;86.70;31.63;;;;;;;8.14;100.00;101531.91;6281497;22;20040;-75
2022/11/29 00:32:47;;;;;;;79.90;29.73;;;;;;;8.15;100.00;101527.34;6253812;22;20099;-75
2022/11/29 00:35:13;;;;;;;90.30;31.25;;;;;;;8.16;100.00;101537.56;6281048;22;20450;-75
2022/11/29 00:37:40;;;;;;;84.70;30.60;;;;;;;8.16;100.00;101532.25;6281040;22;20441;-75
2022/11/29 00:40:07;;;;;;;85.95;30.65;;;;;;;8.21;100.00;101539.00;6281489;22;20087;-75
2022/11/29 00:42:33;;;;;;;83.20;30.55;;;;;;;8.20;100.00;101537.50;6280384;22;20082;-76
2022/11/29 00:45:00;;;;;;;77.88;30.60;;;;;;;8.21;100.00;101536.34;6253840;22;20051;-75
2022/11/29 00:47:27;;;;;;;86.60;30.63;;;;;;;8.22;100.00;101538.59;6281196;22;20428;-76
2022/11/29 00:49:54;;;;;;;88.10;31.30;;;;;;;8.24;100.00;101532.91;6253882;22;20023;-75
2022/11/29 00:52:20;;;;;;;86.22;31.50;;;;;;;8.24;100.00;101538.94;6281174;22;20016;-75
2022/11/29 00:54:47;;;;;;;113.88;31.52;;;;;;;8.21;100.00;101534.47;6280969;22;20068;-75
2022/11/29 00:57:13;;;;;;;100.05;30.58;;;;;;;8.22;100.00;101538.59;6253985;22;20016;-75
2022/11/29 00:59:40;;;;;;;128.02;31.02;;;;;;;8.18;100.00;101532.59;6253755;22;20494;-75
2022/11/29 01:02:06;;;;;;;96.80;32.25;;;;;;;8.16;100.00;101531.50;6281414;22;20051;-75
2022/11/29 01:04:32;;;;;;;84.07;31.00;;;;;;;8.16;100.00;101537.56;6279956;22;20525;-75
2022/11/29 01:06:59;;;;;;;84.40;31.63;;;;;;;8.19;100.00;101530.72;6281164;22;20544;-78
2022/11/29 01:09:25;;;;;;;93.68;29.73;;;;;;;8.18;100.00;101531.84;6281147;22;20095;-77
2022/11/29 01:11:52;;;;;;;102.07;30.25;;;;;;;8.16;100.00;101542.88;6253261;22;20024;-75
2022/11/29 01:14:19;;;;;;;97.35;30.52;;;;;;;8.15;100.00;101537.97;6281043;22;20923;-76
2022/11/29 01:16:45;;;;;;;71.70;29.70;;;;;;;8.14;100.00;101545.16;6280844;22;20044;-76
2022/11/29 01:19:12;;;;;;;90.68;30.45;;;;;;;8.15;100.00;101543.28;6253494;22;20016;-76
2022/11/29 01:21:38;;;;;;;96.22;30.48;;;;;;;8.17;100.00;101546.28;6282026;22;20092;-75
2022/11/29 01:24:05;;;;;;;85.50;30.17;;;;;;;8.17;100.00;101543.63;6282619;22;20473;-76
2022/11/29 01:26:31;;;;;;;72.30;29.55;;;;;;;8.18;100.00;101551.19;6282396;22;20327;-75
2022/11/29 01:28:58;;;;;;;70.25;28.27;;;;;;;8.17;100.00;101560.28;6282408;22;20012;-75
2022/11/29 01:31:29;;;;;;;64.43;27.08;;;;;;;8.14;100.00;101558.44;6254901;22;20116;-76
2022/11/29 01:33:57;;;;;;;70.88;27.70;;;;;;;8.11;100.00;101559.22;6282129;22;20020;-76
2022/11/29 01:36:24;;;;;;;70.38;27.05;;;;;;;8.10;100.00;101564.94;6282275;22;20071;-75
2022/11/29 01:38:51;;;;;;;66.50;26.48;;;;;;;8.06;100.00;101564.25;6281860;22;20398;-76
2022/11/29 01:41:21;;;;;;;72.18;27.10;;;;;;;8.08;100.00;101567.25;6282154;22;20012;-76
2022/11/29 01:44:04;;;;;;;67.30;27.48;;;;;;;8.08;100.00;101564.59;6281502;22;20086;-76
2022/11/29 01:46:33;;;;;;;68.68;25.77;;;;;;;8.08;100.00;101569.91;6282011;22;20016;-76
2022/11/29 01:49:09;;;;;;;66.65;26.70;;;;;;;8.09;100.00;101569.50;6281880;22;20012;-76
2022/11/29 01:51:39;;;;;;;59.75;24.95;;;;;;;8.08;100.00;101575.94;6281983;22;20012;-76
2022/11/29 01:54:07;;;;;;;63.40;26.05;;;;;;;8.07;100.00;101574.44;6282037;22;20027;-76
2022/11/29 01:56:34;;;;;;;57.85;25.20;;;;;;;8.04;100.00;101576.00;6281854;22;20091;-76
2022/11/29 01:59:05;;;;;;;59.65;24.52;;;;;;;8.03;100.00;101573.75;6282251;22;20082;-76
2022/11/29 02:01:33;;;;;;;60.27;23.53;;;;;;;8.07;100.00;101573.69;6281707;22;20059;-76
2022/11/29 02:04:00;;;;;;;62.83;25.73;;;;;;;8.06;100.00;101578.25;6281650;22;20102;-76
2022/11/29 02:06:28;;;;;;;66.38;27.20;;;;;;;8.08;100.00;101583.16;6255044;22;20094;-76
2022/11/29 02:08:55;;;;;;;65.05;26.83;;;;;;;8.10;100.00;101584.25;6282099;22;20490;-76
2022/11/29 02:11:41;;;;;;;59.67;24.58;;;;;;;8.11;100.00;101580.44;6254567;22;20078;-76
2022/11/29 02:14:33;;;;;;;56.67;23.15;;;;;;;8.12;100.00;101584.59;6281920;22;20044;-76
2022/11/29 02:17:21;;;;;;;59.50;25.08;;;;;;;8.09;100.00;101584.66;6281643;22;20453;-76
2022/11/29 02:19:57;;;;;;;48.00;23.27;;;;;;;8.04;100.00;101581.28;6281823;22;20012;-76
2022/11/29 02:22:29;;;;;;;51.65;23.00;;;;;;;8.05;100.00;101579.41;6282031;22;20659;-76
2022/11/29 02:25:26;;;;;;;57.38;24.55;;;;;;;8.04;100.00;101581.28;6254770;22;20099;-76
2022/11/29 02:28:09;;;;;;;53.90;22.27;;;;;;;8.06;100.00;101582.81;6281637;22;20013;-76
2022/11/29 02:31:00;;;;;;;55.00;22.80;;;;;;;8.04;100.00;101588.50;6229037;22;20027;-76
2022/11/29 02:33:51;;;;;;;51.13;21.93;;;;;;;8.06;100.00;101586.19;6253887;22;20031;-76
2022/11/29 02:36:34;;;;;;;53.95;23.50;;;;;;;8.07;100.00;101589.59;6282111;22;20550;-76
2022/11/29 02:39:24;;;;;;;53.88;23.15;;;;;;;8.04;100.00;101583.19;6281943;22;20023;-75
2022/11/29 02:42:09;;;;;;;53.65;21.45;;;;;;;8.05;100.00;101592.66;6281712;22;20047;-76
2022/11/29 02:44:48;;;;;;;53.97;21.98;;;;;;;8.03;100.00;101592.31;6281627;22;20406;-76
2022/11/29 02:47:27;;;;;;;49.92;20.80;;;;;;;7.97;100.00;101596.59;6281506;22;20082;-76
2022/11/29 02:50:08;;;;;;;45.75;20.35;;;;;;;7.92;100.00;101599.69;6282074;22;20445;-76
2022/11/29 02:52:49;;;;;;;51.42;21.77;;;;;;;7.92;100.00;101592.47;6281670;22;20016;-76
2022/11/29 02:55:38;;;;;;;50.55;20.63;;;;;;;7.95;100.00;101593.59;6281722;22;20024;-76
2022/11/29 02:58:16;;;;;;;44.05;19.52;;;;;;;7.95;100.00;101604.94;6254564;22;20016;-76
2022/11/29 03:00:57;;;;;;;49.63;19.67;;;;;;;7.93;100.00;101607.25;6280811;22;20016;-76
2022/11/29 03:03:36;;;;;;;46.47;19.65;;;;;;;7.94;100.00;101613.28;6281878;22;20043;-75
2022/11/29 03:06:19;;;;;;;45.05;19.80;;;;;;;7.94;100.00;101619.34;6281672;22;20098;-77
2022/11/29 03:09:12;;;;;;;45.85;19.48;;;;;;;7.91;100.00;101617.50;6281666;22;20104;-77
2022/11/29 03:11:59;;;;;;;45.53;19.55;;;;;;;7.91;100.00;101619.38;6281425;22;20019;-76
2022/11/29 03:14:37;;;;;;;42.72;19.30;;;;;;;7.90;100.00;101620.53;6281793;22;20044;-77
2022/11/29 03:17:15;;;;;;;46.28;20.02;;;;;;;7.90;100.00;101620.53;6281265;22;20027;-77
2022/11/29 03:20:16;;;;;;;46.17;21.17;;;;;;;7.89;100.00;101621.69;6281458;22;20520;-77
2022/11/29 03:22:47;;;;;;;48.45;20.20;;;;;;;7.89;100.00;101617.13;6281447;22;20040;-76
2022/11/29 03:25:24;;;;;;;60.75;22.85;;;;;;;7.88;100.00;101625.50;6281859;22;20091;-77
2022/11/29 03:28:02;;;;;;;52.00;21.33;;;;;;;7.87;100.00;101630.03;6281221;22;20046;-76
2022/11/29 03:30:31;;;;;;;49.70;22.05;;;;;;;7.88;100.00;101633.44;6280862;22;20500;-77
2022/11/29 03:33:25;;;;;;;62.78;22.45;;;;;;;7.87;100.00;101645.94;6281702;22;20055;-77
2022/11/29 03:36:06;;;;;;;57.58;23.30;;;;;;;7.85;100.00;101642.19;6281385;22;20019;-77
2022/11/29 03:38:41;;;;;;;61.05;22.38;;;;;;;7.83;100.00;101642.59;6281273;22;20087;-76
2022/11/29 03:41:26;;;;;;;57.45;23.45;;;;;;;7.84;100.00;101649.38;6281698;22;20027;-77
2022/11/29 03:43:59;;;;;;;54.00;22.42;;;;;;;7.85;100.00;101637.63;6280392;22;20339;-76
2022/11/29 03:46:41;;;;;;;60.35;20.83;;;;;;;7.84;100.00;101651.28;6281993;22;20088;-76
2022/11/29 03:49:25;;;;;;;46.83;20.52;;;;;;;7.85;100.00;101647.50;6281665;22;20489;-78
2022/11/29 03:51:57;;;;;;;43.83;19.17;;;;;;;7.86;100.00;101649.00;6281288;22;20488;-76
2022/11/29 03:54:37;;;;;;;57.53;20.33;;;;;;;7.84;100.00;101652.03;6281619;22;20445;-77
2022/11/29 03:57:05;;;;;;;43.63;19.77;;;;;;;7.84;100.00;101653.94;6281731;22;20445;-76
2022/11/29 04:00:05;;;;;;;67.65;18.63;;;;;;;7.82;100.00;101659.63;6280442;22;20087;-77
2022/11/29 04:03:17;;;;;;;64.63;18.35;;;;;;;7.79;100.00;101667.63;6279254;22;20028;-77
2022/11/29 04:06:09;;;;;;;39.75;17.88;;;;;;;7.74;100.00;101665.41;6281220;22;20067;-76
2022/11/29 04:08:45;;;;;;;44.85;18.20;;;;;;;7.73;100.00;101662.00;6281211;22;20414;-77
2022/11/29 04:11:26;;;;;;;48.17;18.17;;;;;;;7.70;100.00;101674.16;6281598;22;20071;-77
2022/11/29 04:14:15;;;;;;;80.65;18.88;;;;;;;7.68;100.00;101676.44;6280750;22;20399;-76
2022/11/29 04:17:14;;;;;;;38.63;16.80;;;;;;;7.67;100.00;101677.59;6281245;22;20437;-76
2022/11/29 04:19:56;;;;;;;45.95;17.38;;;;;;;7.66;100.00;101675.34;6281384;22;20019;-76
2022/11/29 04:22:50;;;;;;;54.92;17.02;;;;;;;7.65;100.00;101671.94;6281379;22;20134;-76
2022/11/29 04:26:09;;;;;;;54.42;16.38;;;;;;;7.61;100.00;101675.78;6281620;22;20087;-77
2022/11/29 04:29:10;;;;;;;45.17;15.82;;;;;;;7.61;100.00;101675.78;6228876;22;20075;-76
2022/11/29 04:31:58;;;;;;;57.50;15.93;;;;;;;7.60;100.00;101680.31;6281189;22;20020;-76
2022/11/29 04:35:04;;;;;;;81.00;15.13;;;;;;;7.60;100.00;101677.66;6254379;22;20020;-76
2022/11/29 04:37:51;;;;;;;91.78;15.88;;;;;;;7.59;100.00;101683.41;6281115;22;20024;-76
2022/11/29 04:40:44;;;;;;;45.88;15.77;;;;;;;7.57;100.00;101683.03;6281512;22;20476;-76
2022/11/29 04:43:38;;;;;;;70.50;15.95;;;;;;;7.55;100.00;101687.97;6280221;22;20020;-76
2022/11/29 04:46:30;;;;;;;38.22;16.13;;;;;;;7.57;100.00;101689.09;6253947;22;20430;-76
2022/11/29 04:49:17;;;;;;;56.65;16.48;;;;;;;7.54;100.00;101692.53;6281473;22;20026;-76
2022/11/29 04:52:21;;;;;;;54.92;15.32;;;;;;;7.53;100.00;101692.91;6280921;22;20016;-77
2022/11/29 04:54:55;;;;;;;64.75;16.40;;;;;;;7.52;100.00;101694.06;6280118;22;20023;-75
2022/11/29 04:57:38;;;;;;;59.92;17.10;;;;;;;7.51;100.00;101698.63;6280844;22;20019;-75
2022/11/29 05:00:33;;;;;;;47.00;16.55;;;;;;;7.49;100.00;101705.44;6281164;22;20092;-75
2022/11/29 05:03:15;;;;;;;51.80;17.25;;;;;;;7.52;100.00;101702.75;6278988;22;20090;-75
2022/11/29 05:05:45;;;;;;;58.60;16.67;;;;;;;7.52;100.00;101710.72;6280838;22;20024;-75
2022/11/29 05:08:36;;;;;;;42.78;17.77;;;;;;;7.54;100.00;101708.44;6281233;22;20052;-75
2022/11/29 05:11:49;;;;;;;61.67;16.60;;;;;;;7.56;100.00;101716.72;6280628;22;20058;-75
2022/11/29 05:14:31;;;;;;;42.15;17.58;;;;;;;7.57;100.00;101717.47;6258872;22;20095;-75
2022/11/29 05:17:22;;;;;;;54.15;17.00;;;;;;;7.58;100.00;101721.63;6281164;22;20078;-75
2022/11/29 05:20:20;;;;;;;46.55;16.73;;;;;;;7.60;100.00;101725.38;6253812;22;20027;-76
2022/11/29 05:23:02;;;;;;;59.95;17.55;;;;;;;7.60;100.00;101728.03;6280844;22;20138;-75
2022/11/29 05:25:36;;;;;;;40.03;18.52;;;;;;;7.60;100.00;101733.31;6280291;22;20020;-75
2022/11/29 05:28:11;;;;;;;38.05;17.95;;;;;;;7.61;100.00;101732.19;6280994;22;20058;-75
2022/11/29 05:31:15;;;;;;;64.32;19.10;;;;;;;7.62;100.00;101736.34;6280590;22;20083;-74
2022/11/29 05:34:03;;;;;;;32.58;15.95;;;;;;;7.65;100.00;101738.19;6280497;22;20095;-74
2022/11/29 05:37:00;;;;;;;61.13;17.15;;;;;;;7.62;100.00;101736.34;6280494;22;20083;-75
2022/11/29 05:40:13;;;;;;;35.55;17.40;;;;;;;7.61;100.00;101736.72;6281038;22;20391;-75
2022/11/29 05:42:51;;;;;;;59.40;17.10;;;;;;;7.60;100.00;101735.97;6280081;22;20013;-74
2022/11/29 05:45:32;;;;;;;75.38;17.05;;;;;;;7.59;100.00;101741.69;6281034;22;20087;-74
2022/11/29 05:48:05;;;;;;;50.25;18.35;;;;;;;7.59;100.00;101742.44;6280926;22;20032;-75
2022/11/29 05:50:39;;;;;;;100.50;18.02;;;;;;;7.58;100.00;101750.78;6280473;22;20016;-75
2022/11/29 05:53:48;;;;;;;44.30;18.10;;;;;;;7.56;100.00;101759.13;6280664;22;20468;-74
2022/11/29 05:56:39;;;;;;;54.05;16.63;;;;;;;7.56;100.00;101753.81;6280213;22;20031;-74
2022/11/29 05:59:14;;;;;;;65.10;18.30;;;;;;;7.56;100.00;101768.97;6280726;22;20382;-74
2022/11/29 06:02:11;;;;;;;42.88;16.77;;;;;;;7.57;100.00;101773.88;6280546;22;20469;-74
2022/11/29 06:04:59;;;;;;;45.05;17.77;;;;;;;7.56;100.00;101767.09;6280384;22;20513;-74
2022/11/29 06:07:31;;;;;;;53.63;17.08;;;;;;;7.58;100.00;101772.00;6282122;22;20016;-74
2022/11/29 06:10:16;;;;;;;41.13;16.48;;;;;;;7.57;100.00;101775.78;6281600;22;20039;-74
2022/11/29 06:12:59;;;;;;;38.60;13.45;;;;;;;7.55;100.00;101786.03;6254448;22;20382;-74
2022/11/29 06:15:42;;;;;;;34.35;13.70;;;;;;;7.55;100.00;101770.13;6281812;22;20409;-74
2022/11/29 06:18:14;;;;;;;35.00;13.82;;;;;;;7.56;100.00;101782.97;6282128;22;20024;-74
2022/11/29 06:21:15;;;;;;;41.83;13.52;;;;;;;7.57;100.00;101778.44;6281845;22;20490;-74
2022/11/29 06:24:00;;;;;;;34.13;12.50;;;;;;;7.57;100.00;101778.44;6281447;22;20042;-74
2022/11/29 06:26:45;;;;;;;30.00;12.80;;;;;;;7.58;100.00;101783.34;6282242;22;20023;-74
2022/11/29 06:29:48;;;;;;;28.60;12.05;;;;;;;7.60;100.00;101788.22;6281905;22;20047;-75
2022/11/29 06:32:39;;;;;;;35.63;13.43;;;;;;;7.59;100.00;101792.03;6282028;22;20046;-75
2022/11/29 06:35:14;;;;;;;28.05;12.52;;;;;;;7.59;100.00;101786.75;6254713;22;20040;-75
2022/11/29 06:37:53;;;;;;;38.90;12.77;;;;;;;7.57;100.00;101789.78;6281576;22;20051;-75
2022/11/29 06:40:20;;;;;;;36.55;13.73;;;;;;;7.55;100.00;101800.03;6281871;22;20020;-74
2022/11/29 06:42:47;;;;;;;31.45;13.15;;;;;;;7.57;100.00;101796.97;6281206;22;20018;-75
2022/11/29 06:45:15;;;;;;;59.88;14.20;;;;;;;7.57;100.00;101810.22;6281834;22;20012;-74
2022/11/29 06:47:46;;;;;;;43.70;15.00;;;;;;;7.55;100.00;101804.56;6254684;22;20525;-74
2022/11/29 06:50:31;;;;;;;46.53;16.85;;;;;;;7.53;100.00;101812.16;6281783;22;20016;-74
2022/11/29 06:53:06;;;;;;;49.33;15.27;;;;;;;7.50;100.00;101815.59;6281346;22;20012;-74
2022/11/29 06:56:03;;;;;;;35.55;14.43;;;;;;;7.52;100.00;101821.25;6281362;22;20095;-74
2022/11/29 06:59:04;;;;;;;51.08;14.43;;;;;;;7.51;100.00;101828.44;6281679;22;20074;-74
2022/11/29 07:01:54;;;;;;;37.53;14.48;;;;;;;7.52;100.00;101832.59;6281610;22;20067;-74
2022/11/29 07:04:44;;;;;;;36.47;13.80;;;;;;;7.53;100.00;101828.81;6280056;22;20055;-75
2022/11/29 07:07:19;;;;;;;34.10;13.18;;;;;;;7.52;100.00;101832.59;6279477;22;20016;-75
2022/11/29 07:09:48;;;;;;;30.00;13.02;;;;;;;7.52;100.00;101834.50;6279830;22;20023;-75
2022/11/29 07:12:16;;;;;;;34.20;12.88;;;;;;;7.52;100.00;101843.19;6280968;22;20512;-77
2022/11/29 07:14:43;;;;;;;45.28;13.32;;;;;;;7.51;100.00;101846.25;6282102;22;20016;-75
2022/11/29 07:17:19;;;;;;;35.97;12.80;;;;;;;7.48;100.00;101850.41;6281792;22;20013;-74
2022/11/29 07:20:18;;;;;;;31.45;13.05;;;;;;;7.47;100.00;101853.47;6282412;22;20469;-74
2022/11/29 07:22:54;;;;;;;28.65;11.20;;;;;;;7.46;100.00;101859.91;6281799;22;20023;-75
2022/11/29 07:25:43;;;;;;;28.90;12.23;;;;;;;7.47;100.00;101866.72;6282408;22;20012;-76
2022/11/29 07:28:31;;;;;;;24.13;11.52;;;;;;;7.46;100.00;101865.94;6282390;22;20058;-75
2022/11/29 07:31:10;;;;;;;29.60;12.23;;;;;;;7.45;100.00;101866.34;6255194;22;20036;-75
2022/11/29 07:34:01;;;;;;;32.65;11.95;;;;;;;7.43;100.00;101873.94;6282272;22;20099;-75
2022/11/29 07:36:47;;;;;;;42.22;12.52;;;;;;;7.44;100.00;101873.53;6281575;22;20467;-76
2022/11/29 07:39:40;;;;;;;35.65;11.23;;;;;;;7.35;100.00;101878.50;6282130;22;20042;-77
2022/11/29 07:42:29;;;;;;;42.90;11.90;;;;;;;7.28;100.00;101881.97;6281890;22;20018;-75
2022/11/29 07:44:59;;;;;;;40.47;12.18;;;;;;;7.25;100.00;101882.75;6255085;22;20027;-75
2022/11/29 07:47:25;;;;;;;57.65;11.80;;;;;;;7.22;100.00;101890.69;6254420;22;20023;-75
2022/11/29 07:49:57;;;;;;;34.22;10.90;;;;;;;7.20;100.00;101890.34;6282334;22;20036;-75
2022/11/29 07:52:24;;;;;;;40.90;11.60;;;;;;;7.20;100.00;101895.63;6281359;22;20104;-75
2022/11/29 07:54:50;;;;;;;29.73;10.57;;;;;;;7.21;100.00;101894.50;6281774;22;20024;-75
2022/11/29 07:57:17;;;;;;;31.85;10.50;;;;;;;7.20;100.00;101899.03;6282087;22;20067;-75
2022/11/29 07:59:43;;;;;;;29.88;9.82;;;;;;;7.19;100.00;101905.50;6281852;22;20087;-75
2022/11/29 08:02:10;;;;;;;37.17;9.88;;;;;;;7.19;100.00;101904.75;6254502;22;20047;-76
2022/11/29 08:04:42;;;;;;;32.67;9.63;;;;;;;7.13;100.00;101916.88;6281777;22;20131;-75
2022/11/29 08:07:10;;;;;;;32.05;10.20;;;;;;;7.07;100.00;101908.59;6281919;22;20016;-76
2022/11/29 08:09:36;;;;;;;21.17;10.02;;;;;;;7.08;100.00;101917.28;6281840;22;20066;-76
2022/11/29 08:12:03;;;;;;;23.20;8.48;;;;;;;7.06;100.00;101917.66;6254997;22;20404;-76
2022/11/29 08:14:31;;;;;;;20.50;8.65;;;;;;;7.05;100.00;101921.47;6282031;22;20095;-76
2022/11/29 08:16:58;;;;;;;20.02;8.45;;;;;;;7.07;100.00;101913.13;6281827;22;20070;-76
2022/11/29 08:19:24;;;;;;;22.50;8.85;;;;;;;7.09;100.00;101916.16;6281431;22;20456;-75
2022/11/29 08:21:51;;;;;;;21.88;8.63;;;;;;;7.10;100.00;101917.66;6282020;22;20012;-74
2022/11/29 08:24:17;;;;;;;19.65;8.95;;;;;;;7.13;100.00;101919.53;6281924;22;20013;-76
2022/11/29 08:26:44;;;;;;;32.53;9.05;;;;;;;7.15;100.00;101925.19;6254403;22;20020;-75
2022/11/29 08:29:10;;;;;;;30.02;8.80;;;;;;;7.16;100.00;101926.69;6281864;22;20012;-76
2022/11/29 08:31:37;;;;;;;32.20;9.10;;;;;;;7.17;100.00;101928.22;6281889;22;20012;-74
2022/11/29 08:34:05;;;;;;;29.58;8.65;;;;;;;7.19;100.00;101925.94;6281385;22;20024;-75
2022/11/29 08:36:32;;;;;;;24.27;8.68;;;;;;;7.23;100.00;101916.81;6281861;22;20103;-77
2022/11/29 08:39:01;;;;;;;30.20;8.77;;;;;;;7.28;100.00;101921.69;6282090;22;20378;-76
2022/11/29 08:41:35;;;;;;;20.65;8.25;;;;;;;7.31;100.00;101923.56;6282051;22;20016;-77
2022/11/29 08:44:03;;;;;;;25.02;8.75;;;;;;;7.32;100.00;101919.03;6281419;22;20099;-77
2022/11/29 08:49:15;;;;;;;28.20;8.82;;;;;;;7.34;100.00;101932.63;6281367;22;20016;-74
2022/11/29 08:51:41;;;;;;;28.98;8.93;;;;;;;7.35;100.00;101934.16;6281814;22;20016;-74
2022/11/29 08:54:08;;;;;;;25.83;9.18;;;;;;;7.38;100.00;101930.72;6281827;22;20047;-75
2022/11/29 08:56:36;;;;;;;28.05;9.00;;;;;;;7.39;100.00;101936.78;6281714;22;20079;-74
2022/11/29 08:59:22;;;;;;;32.72;7.72;;;;;;;7.39;100.00;101939.44;6279979;22;20016;-75
2022/11/29 09:01:49;;;;;;;25.98;8.85;;;;;;;7.41;100.00;101940.53;6281434;22;20012;-74
2022/11/29 09:04:16;;;;;;;22.35;9.18;;;;;;;7.41;100.00;101948.50;6281216;22;20016;-74
2022/11/29 09:06:43;;;;;;;23.60;8.48;;;;;;;7.44;100.00;101946.97;6254083;22;20043;-73
2022/11/29 09:09:09;;;;;;;24.95;9.35;;;;;;;7.49;100.00;101946.56;6281145;22;20012;-73
2022/11/29 09:11:36;;;;;;;33.75;10.35;;;;;;;7.52;100.00;101945.78;6281065;22;20066;-73
2022/11/29 09:14:05;;;;;;;38.90;10.30;;;;;;;7.56;100.00;101952.56;6254224;22;20071;-74
2022/11/29 09:16:34;;;;;;;22.00;8.90;;;;;;;7.61;100.00;101951.38;6281126;22;20070;-74
2022/11/29 09:19:05;;;;;;;23.38;9.48;;;;;;;7.61;100.00;101957.44;6280761;22;20079;-74
2022/11/29 09:21:35;;;;;;;28.38;9.65;;;;;;;7.64;100.00;101953.25;6253702;22;20100;-74
2022/11/29 09:24:05;;;;;;;22.27;8.27;;;;;;;7.60;100.00;101963.13;6253905;22;20030;-74
2022/11/29 09:26:34;;;;;;;21.17;7.82;;;;;;;7.59;100.00;101957.09;6281111;22;20019;-74
2022/11/29 09:29:03;;;;;;;26.42;8.90;;;;;;;7.67;100.00;101963.09;6281118;22;20019;-74
2022/11/29 09:31:30;;;;;;;19.50;7.97;;;;;;;7.70;100.00;101964.97;6280950;22;20074;-73
2022/11/29 09:33:57;;;;;;;22.65;8.50;;;;;;;7.66;100.00;101959.69;6280731;22;20466;-74
2022/11/29 09:36:23;;;;;;;17.52;7.00;;;;;;;7.65;100.00;101966.13;6281159;22;20409;-73
2022/11/29 09:38:54;;;;;;;19.23;7.35;;;;;;;7.66;100.00;101980.88;6281103;22;20353;-72
2022/11/29 09:41:51;;;;;;;21.65;8.43;;;;;;;7.72;100.00;101973.28;6281803;22;20012;-74
2022/11/29 09:44:28;;;;;;;20.20;8.07;;;;;;;7.80;100.00;101988.00;6282145;22;20024;-74
2022/11/29 09:47:46;;;;;;;23.00;8.27;;;;;;;7.84;100.00;101983.41;6254899;22;20392;-74
2022/11/29 09:50:18;;;;;;;22.00;8.15;;;;;;;7.83;100.00;101994.41;6282572;22;20020;-74
2022/11/29 09:53:13;;;;;;;23.95;8.60;;;;;;;7.84;100.00;101995.91;6282416;22;20473;-73
2022/11/29 09:56:02;;;;;;;15.43;7.53;;;;;;;7.87;100.00;102000.44;6281901;22;20384;-74
2022/11/29 09:58:35;;;;;;;19.73;7.25;;;;;;;7.97;100.00;102002.28;6282527;22;20378;-73
2022/11/29 10:01:06;;;;;;;16.13;7.40;;;;;;;8.03;100.00;102008.66;6281725;22;20087;-73
2022/11/29 10:03:39;;;;;;;130.23;75.47;;;;;;;8.02;100.00;101999.94;6282389;22;20031;-73
2022/11/29 10:06:29;;;;;;;22.80;10.43;;;;;;;8.06;100.00;101997.25;6282145;22;20066;-73
2022/11/29 10:09:11;;;;;;;20.08;7.90;;;;;;;8.09;100.00;102008.97;6282227;22;20016;-73
2022/11/29 10:11:46;;;;;;;17.83;8.18;;;;;;;8.11;100.00;102015.41;6282553;22;20020;-74
2022/11/29 10:14:21;;;;;;;21.45;7.97;;;;;;;8.12;100.00;102016.91;6282519;22;20449;-74
2022/11/29 10:16:56;;;;;;;21.60;7.35;;;;;;;8.08;100.00;102021.50;6281958;22;20027;-73
2022/11/29 10:19:44;;;;;;;20.40;8.60;;;;;;;8.07;100.00;102014.69;6282449;22;20020;-74
2022/11/29 10:22:34;;;;;;;24.70;7.82;;;;;;;8.02;100.00;102005.25;6282638;22;20094;-74
2022/11/29 10:25:02;;;;;;;13.25;7.22;;;;;;;8.00;100.00;102010.19;6282326;22;20020;-74
2022/11/29 10:27:28;;;;;;;27.13;7.07;;;;;;;8.05;100.00;102009.00;6282306;22;20020;-74
2022/11/29 10:29:58;;;;;;;22.45;7.72;;;;;;;8.13;100.00;102004.41;6281901;22;20047;-74
2022/11/29 10:32:27;;;;;;;22.13;8.00;;;;;;;8.20;100.00;102007.75;6282483;22;20020;-73
2022/11/29 10:34:57;;;;;;;25.75;8.15;;;;;;;8.22;100.00;102007.38;6282475;22;20019;-74
2022/11/29 10:37:24;;;;;;;26.20;8.60;;;;;;;8.21;100.00;102008.50;6281765;22;20020;-74
2022/11/29 10:39:58;;;;;;;19.08;7.57;;;;;;;8.28;100.00;102014.53;6282351;22;20446;-74
2022/11/29 10:45:30;;;;;;;19.77;7.93;;;;;;;8.27;100.00;102007.69;6281882;22;20012;-74
2022/11/29 10:48:02;;;;;;;14.18;7.30;;;;;;;8.32;100.00;102007.31;6282848;22;20016;-74
2022/11/29 10:50:35;;;;;;;20.67;8.52;;;;;;;8.34;100.00;102009.56;6282583;22;20016;-74
2022/11/29 10:53:09;;;;;;;20.40;8.30;;;;;;;8.33;100.00;102005.41;6281847;22;20016;-74
2022/11/29 10:55:49;;;;;;;20.58;8.50;;;;;;;8.34;100.00;102007.69;6282085;22;20020;-74
2022/11/29 10:58:19;;;;;;;17.20;8.80;;;;;;;8.38;100.00;102001.59;6282464;22;20078;-75
2022/11/29 11:01:19;;;;;;;20.13;8.75;;;;;;;8.39;100.00;102009.16;6281583;22;20446;-74
2022/11/29 11:03:50;;;;;;;20.08;8.80;;;;;;;8.45;100.00;101998.84;6275617;22;20043;-75
2022/11/29 11:06:23;;;;;;;18.77;7.97;;;;;;;8.52;100.00;102009.41;6255820;22;20516;-74
2022/11/29 11:09:10;;;;;;;19.40;7.73;;;;;;;8.52;100.00;102006.75;6282292;22;20469;-75
2022/11/29 11:11:38;;;;;;;17.67;7.90;;;;;;;8.47;100.00;102005.25;6282316;22;20390;-74
2022/11/29 11:14:18;;;;;;;16.70;7.45;;;;;;;8.47;100.00;102010.56;6281840;22;20016;-74
2022/11/29 11:16:44;;;;;;;19.52;7.78;;;;;;;8.48;100.00;102006.00;6282117;22;20438;-74
2022/11/29 11:19:28;;;;;;;28.38;8.55;;;;;;;8.56;100.00;102007.47;6282166;22;20023;-75
2022/11/29 11:21:57;;;;;;;18.95;8.55;;;;;;;8.59;100.00;102004.78;6281984;22;20035;-77
2022/11/29 11:24:27;;;;;;;13.88;8.15;;;;;;;8.60;100.00;102003.63;6282286;22;20039;-77
2022/11/29 11:26:54;;;;;;;21.77;8.25;;;;;;;8.71;100.00;102008.84;6282986;22;20149;-76
2022/11/29 11:29:33;;;;;;;22.33;9.55;;;;;;;8.79;100.00;102004.97;6281510;22;20512;-76
2022/11/29 11:31:59;;;;;;;20.52;8.30;;;;;;;8.71;100.00;102008.06;6282293;22;20092;-75
2022/11/29 11:34:32;;;;;;;20.17;8.68;;;;;;;8.72;100.00;102010.34;6282183;22;20516;-76
2022/11/29 11:37:14;;;;;;;18.42;9.38;;;;;;;8.77;100.00;102012.56;6282036;22;20020;-75
2022/11/29 11:39:41;;;;;;;19.45;8.98;;;;;;;8.78;100.00;102016.72;6282188;22;20051;-75
2022/11/29 11:42:36;;;;;;;19.17;8.98;;;;;;;8.77;100.00;102012.56;6281929;22;20023;-75
2022/11/29 11:45:20;;;;;;;22.92;9.23;;;;;;;8.73;100.00;102013.75;6281976;22;20022;-75
2022/11/29 11:47:53;;;;;;;18.88;8.75;;;;;;;8.75;100.00;102014.88;6282229;22;20016;-75
2022/11/29 11:50:30;;;;;;;20.42;8.70;;;;;;;8.83;100.00;102018.94;6282252;22;20448;-76
2022/11/29 11:53:02;;;;;;;21.60;9.45;;;;;;;8.87;100.00;102024.19;6282029;22;20017;-75
2022/11/29 11:55:41;;;;;;;22.52;9.07;;;;;;;8.85;100.00;102021.94;6254703;22;20035;-75
2022/11/29 11:58:10;;;;;;;18.17;9.35;;;;;;;8.89;100.00;102013.94;6281464;22;20096;-76
2022/11/29 12:00:53;;;;;;;23.58;9.30;;;;;;;8.95;100.00;102022.97;6254744;22;20036;-74
2022/11/29 12:03:44;;;;;;;22.67;9.52;;;;;;;8.97;100.00;102020.69;6281494;22;20016;-75